createdAt,value
2019-04-29T00:00:08.361Z,10.30
2019-04-29T00:02:37.504Z,10.30
2019-04-29T00:05:07.485Z,10.40
2019-04-29T00:07:36.751Z,10.40
2019-04-29T00:10:07.154Z,10.30
2019-04-29T00:12:36.379Z,10.20
2019-04-29T00:15:23.707Z,10.10
2019-04-29T00:17:56.501Z,10.10
2019-04-29T00:20:31.682Z,10.10
2019-04-29T00:23:00.709Z,10.20
2019-04-29T00:25:29.545Z,10.20
2019-04-29T00:27:58.612Z,10.20
2019-04-29T00:30:27.321Z,10.20
2019-04-29T00:32:56.095Z,10.00
2019-04-29T00:35:24.863Z,10.00
2019-04-29T00:38:11.856Z,10.10
2019-04-29T00:40:55.314Z,10.10
2019-04-29T00:43:46.546Z,10.10
2019-04-29T00:46:15.616Z,10.00
2019-04-29T00:48:44.322Z,10.00
2019-04-29T00:51:13.200Z,9.90
2019-04-29T00:53:42.417Z,9.80
2019-04-29T00:56:11.268Z,9.80
2019-04-29T00:58:39.992Z,9.80
2019-04-29T01:01:13.172Z,9.80
2019-04-29T01:03:42.131Z,9.80
2019-04-29T01:06:10.964Z,9.70
2019-04-29T01:08:39.880Z,9.80
2019-04-29T01:11:08.656Z,9.80
2019-04-29T01:13:37.358Z,9.50
2019-04-29T01:16:06.164Z,9.50
2019-04-29T01:18:34.871Z,9.40
2019-04-29T01:21:03.671Z,9.30
2019-04-29T01:23:32.492Z,9.30
2019-04-29T01:26:05.512Z,9.20
2019-04-29T01:28:50.713Z,9.00
2019-04-29T01:31:29.637Z,9.10
2019-04-29T01:34:03.898Z,9.10
2019-04-29T01:36:36.957Z,9.00
2019-04-29T01:39:08.972Z,9.20
2019-04-29T01:41:46.869Z,9.20
2019-04-29T01:44:16.487Z,9.40
2019-04-29T01:46:45.215Z,9.50
2019-04-29T01:49:13.916Z,9.40
2019-04-29T01:51:42.631Z,9.40
2019-04-29T01:54:11.330Z,9.30
2019-04-29T01:56:40.372Z,9.50
2019-04-29T01:59:09.204Z,9.30
2019-04-29T02:01:38.005Z,9.50
2019-04-29T02:04:07.170Z,9.40
2019-04-29T02:06:35.897Z,9.30
2019-04-29T02:09:10.018Z,9.50
2019-04-29T02:11:39.453Z,9.60
2019-04-29T02:14:08.303Z,9.80
2019-04-29T02:16:37.010Z,9.90
2019-04-29T02:19:06.150Z,9.90
2019-04-29T02:21:34.932Z,10.00
2019-04-29T02:24:16.344Z,10.10
2019-04-29T02:26:45.066Z,10.20
2019-04-29T02:29:13.760Z,10.20
2019-04-29T02:31:43.465Z,10.30
2019-04-29T02:34:12.281Z,10.30
2019-04-29T02:36:41.020Z,10.30
2019-04-29T02:39:28.721Z,10.30
2019-04-29T02:42:15.591Z,10.30
2019-04-29T02:44:44.475Z,10.30
2019-04-29T02:47:13.258Z,10.20
2019-04-29T02:49:42.045Z,10.10
2019-04-29T02:52:10.838Z,10.20
2019-04-29T02:54:39.882Z,10.10
2019-04-29T02:57:32.489Z,10.20
2019-04-29T03:00:29.743Z,10.20
2019-04-29T03:03:04.702Z,10.10
2019-04-29T03:05:43.893Z,10.00
2019-04-29T03:08:12.701Z,10.00
2019-04-29T03:10:41.485Z,9.90
2019-04-29T03:13:10.386Z,9.90
2019-04-29T03:15:42.207Z,10.00
2019-04-29T03:18:11.262Z,9.90
2019-04-29T03:20:54.919Z,9.70
2019-04-29T03:23:24.036Z,9.80
2019-04-29T03:25:52.727Z,9.80
2019-04-29T03:28:21.468Z,9.80
2019-04-29T03:30:50.524Z,9.70
2019-04-29T03:33:19.290Z,9.70
2019-04-29T03:35:48.221Z,9.70
2019-04-29T03:38:17.043Z,9.70
2019-04-29T03:40:45.813Z,9.60
2019-04-29T03:43:14.546Z,9.60
2019-04-29T03:45:43.242Z,9.50
2019-04-29T03:48:11.975Z,9.50
2019-04-29T03:50:40.668Z,9.60
2019-04-29T03:53:09.376Z,9.50
2019-04-29T03:55:40.544Z,9.50
2019-04-29T03:58:09.029Z,9.50
2019-04-29T04:00:37.908Z,9.50
2019-04-29T04:03:13.661Z,9.40
2019-04-29T04:05:51.310Z,9.40
2019-04-29T04:08:23.481Z,9.30
2019-04-29T04:10:52.190Z,9.30
2019-04-29T04:13:20.898Z,9.30
2019-04-29T04:15:49.662Z,9.30
2019-04-29T04:18:25.283Z,9.40
2019-04-29T04:20:54.070Z,9.50
2019-04-29T04:23:22.875Z,9.50
2019-04-29T04:25:51.667Z,9.50
2019-04-29T04:28:20.393Z,9.50
2019-04-29T04:30:49.213Z,9.50
2019-04-29T04:33:17.943Z,9.50
2019-04-29T04:35:46.735Z,9.60
2019-04-29T04:38:15.561Z,9.60
2019-04-29T04:40:49.060Z,9.70
2019-04-29T04:43:17.888Z,9.80
2019-04-29T04:45:46.614Z,9.80
2019-04-29T04:48:15.333Z,9.90
2019-04-29T04:50:44.119Z,9.80
2019-04-29T04:53:12.950Z,9.90
2019-04-29T04:55:43.809Z,9.90
2019-04-29T04:58:12.512Z,9.80
2019-04-29T05:00:41.673Z,9.30
2019-04-29T05:03:10.414Z,9.40
2019-04-29T05:05:42.380Z,9.40
2019-04-29T05:08:09.979Z,9.10
2019-04-29T05:10:38.974Z,9.10
2019-04-29T05:13:08.057Z,9.40
2019-04-29T05:15:36.824Z,9.40
2019-04-29T05:18:05.634Z,9.20
2019-04-29T05:20:34.671Z,9.40
2019-04-29T05:23:03.388Z,9.40
2019-04-29T05:25:33.388Z,9.20
2019-04-29T05:28:02.641Z,9.40
2019-04-29T05:30:31.426Z,9.60
2019-04-29T05:33:00.508Z,9.00
2019-04-29T05:35:40.211Z,9.20
2019-04-29T05:38:30.841Z,9.20
2019-04-29T05:40:59.894Z,9.10
2019-04-29T05:43:38.394Z,9.10
2019-04-29T05:46:12.873Z,9.30
2019-04-29T05:48:41.636Z,9.60
2019-04-29T05:51:31.000Z,9.70
2019-04-29T05:54:00.945Z,10.00
2019-04-29T05:56:29.687Z,9.80
2019-04-29T05:58:58.592Z,9.60
2019-04-29T06:01:28.913Z,9.60
2019-04-29T06:03:57.917Z,9.90
2019-04-29T06:06:26.705Z,9.80
2019-04-29T06:08:55.481Z,9.90
2019-04-29T06:11:24.218Z,10.10
2019-04-29T06:13:53.029Z,10.20
2019-04-29T06:16:22.707Z,10.30
2019-04-29T06:18:59.802Z,10.10
2019-04-29T06:21:22.362Z,10.10
2019-04-29T06:23:54.293Z,9.70
2019-04-29T06:26:21.957Z,10.00
2019-04-29T06:28:51.057Z,9.80
2019-04-29T06:31:19.981Z,10.10
2019-04-29T06:33:49.060Z,9.50
2019-04-29T06:36:17.856Z,9.40
2019-04-29T06:38:46.567Z,9.30
2019-04-29T06:41:15.313Z,9.60
2019-04-29T06:43:44.955Z,10.20
2019-04-29T06:46:13.760Z,10.50
2019-04-29T06:48:42.560Z,10.40
2019-04-29T06:51:11.305Z,10.30
2019-04-29T06:53:40.129Z,10.30
2019-04-29T06:56:09.391Z,10.10
2019-04-29T06:58:38.605Z,10.20
2019-04-29T07:01:07.528Z,10.10
2019-04-29T07:03:36.404Z,10.70
2019-04-29T07:06:05.525Z,10.20
2019-04-29T07:08:34.316Z,10.40
2019-04-29T07:11:03.142Z,10.30
2019-04-29T07:13:31.985Z,11.00
2019-04-29T07:16:00.701Z,10.60
2019-04-29T07:18:30.597Z,10.70
2019-04-29T07:20:59.355Z,11.00
2019-04-29T07:23:28.087Z,10.70
2019-04-29T07:25:57.066Z,10.90
2019-04-29T07:28:26.111Z,11.00
2019-04-29T07:31:03.003Z,11.10
2019-04-29T07:33:25.747Z,11.10
2019-04-29T07:35:54.452Z,11.70
2019-04-29T07:38:23.506Z,11.70
2019-04-29T07:40:52.301Z,11.20
2019-04-29T07:43:21.118Z,11.10
2019-04-29T07:46:03.561Z,11.20
2019-04-29T07:48:29.441Z,11.40
2019-04-29T07:50:59.526Z,11.40
2019-04-29T07:53:36.740Z,10.20
2019-04-29T07:56:01.648Z,10.60
2019-04-29T07:58:30.365Z,10.80
2019-04-29T08:00:59.091Z,11.10
2019-04-29T08:03:28.293Z,11.10
2019-04-29T08:05:58.755Z,10.60
2019-04-29T08:08:29.591Z,11.40
2019-04-29T08:10:58.369Z,11.70
2019-04-29T08:13:28.259Z,12.00
2019-04-29T08:15:57.156Z,11.80
2019-04-29T08:18:26.058Z,11.80
2019-04-29T08:20:54.761Z,11.40
2019-04-29T08:23:23.861Z,10.90
2019-04-29T08:25:57.215Z,11.40
2019-04-29T08:28:23.277Z,11.70
2019-04-29T08:30:52.022Z,12.10
2019-04-29T08:33:21.090Z,12.20
2019-04-29T08:35:49.790Z,12.30
2019-04-29T08:38:18.517Z,11.80
2019-04-29T08:40:50.234Z,11.50
2019-04-29T08:43:36.354Z,12.30
2019-04-29T08:46:08.337Z,12.80
2019-04-29T08:48:37.145Z,13.00
2019-04-29T08:51:05.865Z,12.90
2019-04-29T08:53:34.727Z,12.80
2019-04-29T08:56:05.663Z,12.50
2019-04-29T08:58:34.494Z,12.80
2019-04-29T09:01:03.690Z,13.00
2019-04-29T09:03:40.051Z,12.30
2019-04-29T09:06:05.755Z,12.80
2019-04-29T09:08:34.603Z,13.10
2019-04-29T09:11:08.096Z,12.10
2019-04-29T09:13:36.343Z,12.50
2019-04-29T09:16:05.079Z,13.20
2019-04-29T09:18:33.769Z,13.60
2019-04-29T09:21:02.502Z,13.20
2019-04-29T09:23:33.046Z,13.60
2019-04-29T09:26:12.296Z,13.60
2019-04-29T09:28:41.489Z,13.10
2019-04-29T09:31:10.213Z,12.80
2019-04-29T09:33:38.985Z,13.00
2019-04-29T09:36:09.572Z,13.30
2019-04-29T09:38:38.534Z,13.50
2019-04-29T09:41:23.999Z,12.80
2019-04-29T09:44:12.142Z,12.90
2019-04-29T09:46:41.211Z,13.30
2019-04-29T09:49:10.020Z,12.30
2019-04-29T09:51:38.810Z,12.40
2019-04-29T09:54:09.600Z,12.80
2019-04-29T09:56:38.323Z,12.80
2019-04-29T09:59:24.239Z,12.70
2019-04-29T10:02:01.481Z,13.10
2019-04-29T10:04:39.230Z,13.10
2019-04-29T10:07:10.534Z,11.70
2019-04-29T10:09:39.346Z,12.00
2019-04-29T10:12:08.329Z,11.70
2019-04-29T10:14:37.053Z,11.90
2019-04-29T10:17:34.310Z,11.40
2019-04-29T10:20:08.325Z,12.20
2019-04-29T10:22:37.237Z,11.80
2019-04-29T10:25:07.940Z,12.20
2019-04-29T10:27:36.678Z,12.30
2019-04-29T10:30:06.768Z,12.10
2019-04-29T10:32:37.742Z,11.70
2019-04-29T10:35:08.821Z,12.30
2019-04-29T10:37:37.744Z,12.30
2019-04-29T10:40:18.997Z,12.50
2019-04-29T10:42:55.630Z,12.50
2019-04-29T10:45:35.069Z,12.20
2019-04-29T10:48:16.540Z,12.40
2019-04-29T10:50:47.169Z,12.30
2019-04-29T10:53:17.389Z,11.60
2019-04-29T10:55:46.413Z,11.60
2019-04-29T10:58:15.517Z,11.90
2019-04-29T11:01:29.157Z,11.50
2019-04-29T11:04:00.887Z,11.20
2019-04-29T11:06:31.506Z,11.90
2019-04-29T11:09:23.588Z,10.70
2019-04-29T11:11:52.461Z,10.70
2019-04-29T11:14:24.526Z,10.90
2019-04-29T11:16:51.804Z,11.30
2019-04-29T11:19:20.531Z,11.10
2019-04-29T11:21:49.553Z,11.30
2019-04-29T11:24:34.394Z,11.60
2019-04-29T11:27:16.281Z,11.70
2019-04-29T11:29:45.315Z,11.40
2019-04-29T11:32:24.818Z,11.30
2019-04-29T11:35:02.849Z,10.80
2019-04-29T11:37:32.637Z,11.30
2019-04-29T11:40:01.670Z,10.70
2019-04-29T11:42:31.862Z,10.70
2019-04-29T11:45:03.737Z,11.10
2019-04-29T11:47:32.946Z,11.00
2019-04-29T11:50:13.702Z,10.70
2019-04-29T11:52:42.505Z,10.90
2019-04-29T11:55:14.114Z,11.20
2019-04-29T11:57:58.063Z,10.60
2019-04-29T12:00:51.800Z,10.90
2019-04-29T12:03:19.982Z,11.10
2019-04-29T12:05:52.813Z,11.00
2019-04-29T12:08:21.685Z,11.10
2019-04-29T12:11:06.151Z,11.30
2019-04-29T12:13:31.685Z,10.40
2019-04-29T12:16:19.735Z,11.00
2019-04-29T12:18:51.668Z,10.50
2019-04-29T12:21:25.702Z,10.70
2019-04-29T12:23:56.694Z,11.00
2019-04-29T12:26:25.845Z,10.90
2019-04-29T12:28:54.701Z,11.20
2019-04-29T12:31:32.530Z,11.40
2019-04-29T12:34:12.162Z,11.20
2019-04-29T12:36:55.107Z,11.00
2019-04-29T12:39:43.149Z,10.70
2019-04-29T12:42:15.907Z,10.40
2019-04-29T12:44:51.371Z,10.40
2019-04-29T12:47:45.422Z,10.50
2019-04-29T12:50:17.524Z,10.30
2019-04-29T12:52:46.011Z,10.30
2019-04-29T12:55:20.238Z,10.50
2019-04-29T12:57:47.658Z,10.50
2019-04-29T13:00:22.378Z,10.60
2019-04-29T13:03:06.801Z,9.80
2019-04-29T13:05:58.886Z,9.80
2019-04-29T13:08:39.299Z,10.10
2019-04-29T13:11:08.297Z,10.20
2019-04-29T13:13:37.217Z,10.10
2019-04-29T13:16:20.816Z,10.50
2019-04-29T13:19:20.186Z,10.40
2019-04-29T13:21:46.242Z,10.20
2019-04-29T13:24:23.797Z,10.20
2019-04-29T13:26:45.651Z,10.60
2019-04-29T13:29:27.023Z,10.60
2019-04-29T13:31:45.823Z,10.60
2019-04-29T13:34:24.041Z,10.10
2019-04-29T13:37:06.158Z,10.70
2019-04-29T13:39:38.580Z,10.20
2019-04-29T13:41:57.546Z,10.00
2019-04-29T13:44:24.646Z,10.20
2019-04-29T13:47:05.186Z,10.30
2019-04-29T13:49:40.644Z,10.20
2019-04-29T13:52:09.825Z,9.90
2019-04-29T13:54:42.273Z,10.30
2019-04-29T13:57:15.579Z,10.40
2019-04-29T14:00:10.898Z,10.10
2019-04-29T14:02:43.526Z,10.70
2019-04-29T14:05:13.469Z,10.90
2019-04-29T14:07:42.595Z,10.50
2019-04-29T14:10:15.036Z,10.60
2019-04-29T14:12:48.538Z,10.80
2019-04-29T14:15:14.142Z,10.60
2019-04-29T14:17:42.850Z,10.80
2019-04-29T14:20:15.987Z,10.90
2019-04-29T14:22:42.309Z,10.40
2019-04-29T14:25:13.421Z,10.70
2019-04-29T14:27:41.865Z,11.20
2019-04-29T14:30:15.272Z,11.20
2019-04-29T14:32:47.006Z,11.40
2019-04-29T14:35:21.120Z,11.60
2019-04-29T14:37:55.526Z,11.30
2019-04-29T14:40:20.827Z,11.40
2019-04-29T14:42:58.316Z,11.80
2019-04-29T14:45:45.049Z,11.40
2019-04-29T14:48:41.270Z,11.60
2019-04-29T14:50:58.677Z,11.50
2019-04-29T14:53:27.746Z,11.80
2019-04-29T14:55:56.621Z,11.50
2019-04-29T14:58:25.395Z,11.00
2019-04-29T15:01:08.201Z,11.00
2019-04-29T15:03:55.784Z,10.90
2019-04-29T15:06:24.607Z,11.30
2019-04-29T15:08:55.057Z,11.20
2019-04-29T15:11:31.862Z,11.20
2019-04-29T15:14:03.103Z,11.30
2019-04-29T15:16:37.344Z,11.00
2019-04-29T15:19:25.502Z,10.80
2019-04-29T15:21:59.118Z,11.00
2019-04-29T15:24:32.702Z,11.40
2019-04-29T15:26:59.278Z,11.80
2019-04-29T15:29:28.149Z,12.00
2019-04-29T15:31:58.261Z,11.10
2019-04-29T15:34:27.097Z,11.60
2019-04-29T15:36:55.884Z,11.60
2019-04-29T15:39:25.873Z,11.70
2019-04-29T15:41:55.485Z,11.10
2019-04-29T15:44:24.737Z,11.70
2019-04-29T15:46:53.502Z,11.70
2019-04-29T15:49:24.851Z,11.90
2019-04-29T15:51:54.027Z,11.60
2019-04-29T15:54:25.918Z,11.70
2019-04-29T15:56:53.758Z,11.40
2019-04-29T15:59:22.472Z,11.50
2019-04-29T16:01:51.571Z,11.70
2019-04-29T16:04:27.694Z,11.40
2019-04-29T16:07:17.161Z,11.50
2019-04-29T16:10:07.793Z,11.70
2019-04-29T16:12:45.419Z,11.90
2019-04-29T16:15:12.442Z,11.60
2019-04-29T16:17:41.506Z,11.80
2019-04-29T16:20:10.426Z,11.90
2019-04-29T16:22:39.509Z,11.70
2019-04-29T16:25:11.001Z,11.70
2019-04-29T16:27:41.711Z,11.80
2019-04-29T16:30:09.481Z,12.00
2019-04-29T16:32:40.359Z,11.60
2019-04-29T16:35:10.029Z,11.20
2019-04-29T16:37:38.829Z,10.90
2019-04-29T16:40:08.232Z,11.20
2019-04-29T16:42:48.908Z,11.10
2019-04-29T16:45:18.081Z,11.50
2019-04-29T16:47:48.641Z,11.70
2019-04-29T16:50:17.547Z,11.70
2019-04-29T16:52:46.292Z,11.80
2019-04-29T16:55:15.710Z,11.50
2019-04-29T16:57:44.456Z,11.70
2019-04-29T17:00:15.937Z,11.30
2019-04-29T17:02:45.034Z,11.40
2019-04-29T17:05:14.244Z,11.40
2019-04-29T17:07:43.112Z,11.10
2019-04-29T17:10:32.889Z,11.40
2019-04-29T17:13:01.855Z,11.60
2019-04-29T17:15:31.014Z,11.50
2019-04-29T17:18:00.540Z,11.40
2019-04-29T17:20:29.299Z,11.60
2019-04-29T17:22:58.061Z,11.40
2019-04-29T17:25:26.893Z,11.30
2019-04-29T17:28:24.298Z,11.30
2019-04-29T17:31:12.094Z,11.70
2019-04-29T17:33:49.786Z,11.20
2019-04-29T17:36:23.082Z,11.20
2019-04-29T17:38:48.285Z,11.40
2019-04-29T17:41:17.007Z,11.60
2019-04-29T17:43:53.919Z,11.20
2019-04-29T17:46:39.882Z,11.20
2019-04-29T17:49:14.810Z,11.40
2019-04-29T17:51:43.568Z,11.50
2019-04-29T17:54:15.848Z,11.60
2019-04-29T17:57:10.131Z,11.50
2019-04-29T17:59:56.008Z,11.90
2019-04-29T18:02:42.070Z,11.50
2019-04-29T18:05:17.081Z,11.80
2019-04-29T18:07:57.347Z,11.60
2019-04-29T18:10:38.656Z,11.80
2019-04-29T18:13:06.592Z,11.80
2019-04-29T18:15:51.686Z,11.80
2019-04-29T18:18:17.028Z,11.40
2019-04-29T18:21:03.080Z,11.40
2019-04-29T18:23:38.789Z,11.70
2019-04-29T18:26:12.353Z,11.70
2019-04-29T18:28:41.154Z,11.90
2019-04-29T18:31:11.533Z,11.70
2019-04-29T18:33:40.270Z,11.50
2019-04-29T18:36:19.451Z,11.90
2019-04-29T18:38:42.486Z,11.90
2019-04-29T18:41:10.290Z,11.70
2019-04-29T18:43:39.701Z,11.10
2019-04-29T18:46:12.528Z,11.50
2019-04-29T18:48:39.148Z,12.00
2019-04-29T18:51:08.226Z,12.30
2019-04-29T18:53:37.041Z,12.10
2019-04-29T18:56:05.818Z,12.20
2019-04-29T18:58:35.590Z,11.90
2019-04-29T19:01:05.409Z,11.50
2019-04-29T19:03:47.142Z,12.00
2019-04-29T19:06:15.874Z,11.80
2019-04-29T19:08:45.014Z,11.80
2019-04-29T19:11:15.275Z,11.60
2019-04-29T19:13:48.439Z,11.40
2019-04-29T19:16:21.634Z,11.30
2019-04-29T19:18:47.438Z,11.20
2019-04-29T19:21:16.201Z,11.20
2019-04-29T19:23:45.902Z,11.00
2019-04-29T19:26:18.124Z,11.60
2019-04-29T19:28:45.468Z,11.80
2019-04-29T19:31:15.232Z,11.90
2019-04-29T19:33:46.085Z,12.20
2019-04-29T19:36:20.312Z,12.10
2019-04-29T19:38:47.243Z,12.00
2019-04-29T19:41:16.338Z,12.40
2019-04-29T19:43:48.242Z,12.60
2019-04-29T19:46:24.201Z,12.60
2019-04-29T19:48:47.423Z,12.80
2019-04-29T19:51:18.639Z,12.70
2019-04-29T19:53:49.582Z,12.40
2019-04-29T19:56:23.091Z,12.30
2019-04-29T19:58:49.244Z,12.20
2019-04-29T20:01:27.039Z,12.50
2019-04-29T20:04:06.168Z,12.20
2019-04-29T20:06:37.009Z,12.30
2019-04-29T20:09:14.667Z,12.50
2019-04-29T20:11:37.052Z,12.20
2019-04-29T20:14:17.967Z,12.10
2019-04-29T20:17:17.357Z,12.30
2019-04-29T20:20:05.443Z,12.40
2019-04-29T20:22:36.969Z,12.20
2019-04-29T20:25:06.416Z,12.10
2019-04-29T20:27:37.495Z,12.00
2019-04-29T20:30:15.979Z,12.20
2019-04-29T20:32:37.810Z,12.20
2019-04-29T20:35:08.914Z,12.40
2019-04-29T20:37:38.420Z,12.50
2019-04-29T20:40:07.887Z,12.50
2019-04-29T20:42:40.471Z,12.30
2019-04-29T20:45:08.153Z,12.10
2019-04-29T20:47:38.539Z,11.80
2019-04-29T20:50:09.033Z,11.40
2019-04-29T20:53:01.699Z,11.80
2019-04-29T20:55:27.054Z,11.70
2019-04-29T20:57:55.982Z,11.40
2019-04-29T21:00:26.991Z,11.90
2019-04-29T21:02:56.525Z,12.30
2019-04-29T21:05:27.384Z,12.40
2019-04-29T21:08:02.859Z,12.60
2019-04-29T21:10:27.601Z,12.20
2019-04-29T21:13:08.774Z,12.60
2019-04-29T21:15:39.933Z,12.50
2019-04-29T21:18:10.418Z,11.80
2019-04-29T21:20:39.614Z,12.00
2019-04-29T21:23:08.346Z,12.40
2019-04-29T21:25:38.133Z,12.50
2019-04-29T21:28:06.870Z,12.20
2019-04-29T21:30:42.351Z,12.50
2019-04-29T21:33:08.236Z,12.60
2019-04-29T21:35:45.478Z,12.70
2019-04-29T21:38:30.025Z,12.90
2019-04-29T21:41:03.549Z,12.70
2019-04-29T21:43:35.342Z,12.70
2019-04-29T21:46:05.749Z,12.80
2019-04-29T21:48:36.884Z,12.70
2019-04-29T21:51:06.758Z,12.90
2019-04-29T21:53:40.164Z,13.00
2019-04-29T21:56:09.189Z,13.00
2019-04-29T21:58:37.132Z,12.60
2019-04-29T22:01:07.305Z,12.50
2019-04-29T22:03:36.140Z,12.60
2019-04-29T22:06:05.367Z,12.20
2019-04-29T22:08:35.465Z,12.40
2019-04-29T22:11:06.658Z,12.40
2019-04-29T22:13:38.904Z,12.70
2019-04-29T22:16:06.067Z,12.60
2019-04-29T22:18:35.552Z,12.80
2019-04-29T22:21:06.936Z,12.60
2019-04-29T22:23:35.356Z,11.90
2019-04-29T22:26:05.029Z,12.60
2019-04-29T22:28:35.121Z,12.40
2019-04-29T22:31:07.470Z,12.60
2019-04-29T22:33:38.470Z,12.60
2019-04-29T22:36:10.276Z,12.70
2019-04-29T22:38:36.669Z,12.80
2019-04-29T22:41:11.921Z,12.50
2019-04-29T22:43:52.781Z,12.30
2019-04-29T22:46:21.515Z,12.50
2019-04-29T22:48:51.053Z,12.50
2019-04-29T22:51:20.053Z,12.40
2019-04-29T22:53:48.761Z,12.60
2019-04-29T22:56:17.489Z,12.40
2019-04-29T22:58:47.405Z,12.20
2019-04-29T23:01:17.788Z,12.00
2019-04-29T23:03:47.119Z,12.00
2019-04-29T23:06:15.969Z,12.00
2019-04-29T23:08:45.015Z,12.20
2019-04-29T23:11:14.501Z,12.40
2019-04-29T23:13:43.278Z,12.20
2019-04-29T23:16:11.999Z,12.20
2019-04-29T23:18:43.540Z,12.10
2019-04-29T23:21:29.386Z,11.70
2019-04-29T23:24:17.497Z,11.40
2019-04-29T23:26:46.324Z,11.90
2019-04-29T23:29:15.665Z,12.00
2019-04-29T23:31:45.379Z,12.20
2019-04-29T23:34:15.538Z,12.00
2019-04-29T23:36:48.996Z,12.40
2019-04-29T23:39:15.433Z,12.50
2019-04-29T23:41:45.110Z,12.40
2019-04-29T23:44:14.053Z,11.70
2019-04-29T23:46:42.768Z,11.80
2019-04-29T23:49:11.543Z,11.80
2019-04-29T23:51:40.311Z,11.60
2019-04-29T23:54:09.022Z,11.70
2019-04-29T23:56:52.850Z,11.80
2019-04-29T23:59:26.236Z,11.80
